sensor_id;sensor_type;location;lat;lon;timestamp;P1;durP1;ratioP1;P2;durP2;ratioP2
36715;SDS011;22699;51.034;3.730;2022-08-01T00:00:33;9.00;;;4.47;;
36715;SDS011;22699;51.034;3.730;2022-08-01T00:02:58;11.38;;;4.90;;
36715;SDS011;22699;51.034;3.730;2022-08-01T00:05:24;7.60;;;5.13;;
36715;SDS011;22699;51.034;3.730;2022-08-01T00:07:50;9.05;;;5.32;;
36715;SDS011;22699;51.034;3.730;2022-08-01T00:10:18;12.57;;;5.90;;
36715;SDS011;22699;51.034;3.730;2022-08-01T00:12:44;13.18;;;6.90;;
36715;SDS011;22699;51.034;3.730;2022-08-01T00:15:10;9.75;;;7.03;;
36715;SDS011;22699;51.034;3.730;2022-08-01T00:17:37;14.93;;;7.47;;
36715;SDS011;22699;51.034;3.730;2022-08-01T00:20:04;12.02;;;7.07;;
36715;SDS011;22699;51.034;3.730;2022-08-01T00:22:31;14.07;;;8.13;;
36715;SDS011;22699;51.034;3.730;2022-08-01T00:24:58;14.07;;;8.32;;
36715;SDS011;22699;51.034;3.730;2022-08-01T00:27:24;13.70;;;8.18;;
36715;SDS011;22699;51.034;3.730;2022-08-01T00:29:49;17.00;;;9.18;;
36715;SDS011;22699;51.034;3.730;2022-08-01T00:32:15;13.70;;;7.70;;
36715;SDS011;22699;51.034;3.730;2022-08-01T00:34:40;17.42;;;9.77;;
36715;SDS011;22699;51.034;3.730;2022-08-01T00:37:06;21.52;;;9.50;;
36715;SDS011;22699;51.034;3.730;2022-08-01T00:39:32;22.30;;;9.07;;
36715;SDS011;22699;51.034;3.730;2022-08-01T00:41:58;15.00;;;9.13;;
36715;SDS011;22699;51.034;3.730;2022-08-01T00:44:25;20.38;;;10.23;;
36715;SDS011;22699;51.034;3.730;2022-08-01T00:46:51;18.15;;;9.73;;
36715;SDS011;22699;51.034;3.730;2022-08-01T00:49:16;20.10;;;10.07;;
36715;SDS011;22699;51.034;3.730;2022-08-01T00:51:42;20.95;;;11.43;;
36715;SDS011;22699;51.034;3.730;2022-08-01T00:54:09;18.15;;;11.68;;
36715;SDS011;22699;51.034;3.730;2022-08-01T00:56:35;18.02;;;11.00;;
36715;SDS011;22699;51.034;3.730;2022-08-01T00:59:00;24.65;;;12.48;;
36715;SDS011;22699;51.034;3.730;2022-08-01T01:01:28;24.38;;;13.75;;
36715;SDS011;22699;51.034;3.730;2022-08-01T01:03:54;22.25;;;13.25;;
36715;SDS011;22699;51.034;3.730;2022-08-01T01:06:37;19.75;;;11.52;;
36715;SDS011;22699;51.034;3.730;2022-08-01T01:12:42;20.77;;;11.63;;
36715;SDS011;22699;51.034;3.730;2022-08-01T01:17:58;21.85;;;14.10;;
36715;SDS011;22699;51.034;3.730;2022-08-01T01:20:32;23.75;;;13.63;;
36715;SDS011;22699;51.034;3.730;2022-08-01T01:23:26;29.17;;;15.40;;
36715;SDS011;22699;51.034;3.730;2022-08-01T01:28:54;26.90;;;14.43;;
36715;SDS011;22699;51.034;3.730;2022-08-01T01:31:46;28.13;;;15.45;;
36715;SDS011;22699;51.034;3.730;2022-08-01T01:34:15;30.25;;;15.77;;
36715;SDS011;22699;51.034;3.730;2022-08-01T01:36:44;26.45;;;16.63;;
36715;SDS011;22699;51.034;3.730;2022-08-01T01:39:13;25.15;;;16.25;;
36715;SDS011;22699;51.034;3.730;2022-08-01T01:41:40;34.75;;;18.40;;
36715;SDS011;22699;51.034;3.730;2022-08-01T01:44:07;32.92;;;19.83;;
36715;SDS011;22699;51.034;3.730;2022-08-01T01:46:35;31.27;;;19.83;;
36715;SDS011;22699;51.034;3.730;2022-08-01T01:49:01;35.55;;;20.38;;
36715;SDS011;22699;51.034;3.730;2022-08-01T01:51:28;31.60;;;19.98;;
36715;SDS011;22699;51.034;3.730;2022-08-01T01:53:55;31.42;;;20.45;;
36715;SDS011;22699;51.034;3.730;2022-08-01T01:56:22;24.60;;;14.52;;
36715;SDS011;22699;51.034;3.730;2022-08-01T01:58:48;27.83;;;15.02;;
36715;SDS011;22699;51.034;3.730;2022-08-01T02:01:18;18.63;;;11.48;;
36715;SDS011;22699;51.034;3.730;2022-08-01T02:03:46;15.63;;;6.83;;
36715;SDS011;22699;51.034;3.730;2022-08-01T02:06:14;11.32;;;6.32;;
36715;SDS011;22699;51.034;3.730;2022-08-01T02:08:42;16.23;;;6.18;;
36715;SDS011;22699;51.034;3.730;2022-08-01T02:11:09;13.80;;;6.25;;
36715;SDS011;22699;51.034;3.730;2022-08-01T02:13:43;12.65;;;6.13;;
36715;SDS011;22699;51.034;3.730;2022-08-01T02:16:24;14.43;;;6.03;;
36715;SDS011;22699;51.034;3.730;2022-08-01T02:18:52;13.00;;;6.78;;
36715;SDS011;22699;51.034;3.730;2022-08-01T02:21:20;13.68;;;6.72;;
36715;SDS011;22699;51.034;3.730;2022-08-01T02:23:52;18.63;;;7.22;;
36715;SDS011;22699;51.034;3.730;2022-08-01T02:26:19;10.80;;;6.43;;
36715;SDS011;22699;51.034;3.730;2022-08-01T02:28:49;11.05;;;5.20;;
36715;SDS011;22699;51.034;3.730;2022-08-01T02:31:21;11.15;;;6.53;;
36715;SDS011;22699;51.034;3.730;2022-08-01T02:33:58;12.00;;;6.80;;
36715;SDS011;22699;51.034;3.730;2022-08-01T02:36:28;19.10;;;7.38;;
36715;SDS011;22699;51.034;3.730;2022-08-01T02:38:55;9.65;;;6.03;;
36715;SDS011;22699;51.034;3.730;2022-08-01T02:41:24;11.50;;;6.65;;
36715;SDS011;22699;51.034;3.730;2022-08-01T02:43:52;10.80;;;5.65;;
36715;SDS011;22699;51.034;3.730;2022-08-01T02:46:22;9.93;;;6.20;;
36715;SDS011;22699;51.034;3.730;2022-08-01T02:48:53;7.53;;;5.13;;
36715;SDS011;22699;51.034;3.730;2022-08-01T02:51:23;8.45;;;5.15;;
36715;SDS011;22699;51.034;3.730;2022-08-01T02:53:50;11.50;;;5.65;;
36715;SDS011;22699;51.034;3.730;2022-08-01T02:56:18;10.02;;;5.10;;
36715;SDS011;22699;51.034;3.730;2022-08-01T02:58:46;6.13;;;4.60;;
36715;SDS011;22699;51.034;3.730;2022-08-01T03:01:14;4.25;;;3.42;;
36715;SDS011;22699;51.034;3.730;2022-08-01T03:03:42;6.10;;;3.10;;
36715;SDS011;22699;51.034;3.730;2022-08-01T03:06:08;5.45;;;3.03;;
36715;SDS011;22699;51.034;3.730;2022-08-01T03:08:34;7.50;;;2.70;;
36715;SDS011;22699;51.034;3.730;2022-08-01T03:11:02;6.38;;;3.22;;
36715;SDS011;22699;51.034;3.730;2022-08-01T03:13:29;4.97;;;2.83;;
36715;SDS011;22699;51.034;3.730;2022-08-01T03:15:57;3.13;;;1.95;;
36715;SDS011;22699;51.034;3.730;2022-08-01T03:18:24;5.10;;;2.55;;
36715;SDS011;22699;51.034;3.730;2022-08-01T03:20:50;3.85;;;2.22;;
36715;SDS011;22699;51.034;3.730;2022-08-01T03:23:19;3.25;;;1.90;;
36715;SDS011;22699;51.034;3.730;2022-08-01T03:25:48;4.23;;;2.30;;
36715;SDS011;22699;51.034;3.730;2022-08-01T03:28:16;4.60;;;2.28;;
36715;SDS011;22699;51.034;3.730;2022-08-01T03:30:43;4.32;;;2.20;;
36715;SDS011;22699;51.034;3.730;2022-08-01T03:33:09;5.10;;;2.50;;
36715;SDS011;22699;51.034;3.730;2022-08-01T03:35:37;4.07;;;2.40;;
36715;SDS011;22699;51.034;3.730;2022-08-01T03:38:08;5.50;;;2.63;;
36715;SDS011;22699;51.034;3.730;2022-08-01T03:40:42;2.17;;;1.80;;
36715;SDS011;22699;51.034;3.730;2022-08-01T03:43:12;4.30;;;2.08;;
36715;SDS011;22699;51.034;3.730;2022-08-01T03:45:50;4.25;;;2.47;;
36715;SDS011;22699;51.034;3.730;2022-08-01T03:48:19;3.25;;;2.30;;
36715;SDS011;22699;51.034;3.730;2022-08-01T03:50:50;3.42;;;2.25;;
36715;SDS011;22699;51.034;3.730;2022-08-01T03:53:20;6.38;;;2.53;;
36715;SDS011;22699;51.034;3.730;2022-08-01T03:55:49;4.57;;;2.22;;
36715;SDS011;22699;51.034;3.730;2022-08-01T03:58:17;5.03;;;2.28;;
36715;SDS011;22699;51.034;3.730;2022-08-01T04:00:43;6.03;;;3.15;;
36715;SDS011;22699;51.034;3.730;2022-08-01T04:03:10;4.95;;;2.75;;
36715;SDS011;22699;51.034;3.730;2022-08-01T04:05:40;3.58;;;2.45;;
36715;SDS011;22699;51.034;3.730;2022-08-01T04:08:07;6.95;;;3.10;;
36715;SDS011;22699;51.034;3.730;2022-08-01T04:10:32;3.65;;;2.50;;
36715;SDS011;22699;51.034;3.730;2022-08-01T04:12:58;3.65;;;2.63;;
36715;SDS011;22699;51.034;3.730;2022-08-01T04:15:24;6.07;;;2.80;;
36715;SDS011;22699;51.034;3.730;2022-08-01T04:17:50;4.13;;;2.55;;
36715;SDS011;22699;51.034;3.730;2022-08-01T04:20:15;4.78;;;2.80;;
36715;SDS011;22699;51.034;3.730;2022-08-01T04:22:41;4.68;;;2.80;;
36715;SDS011;22699;51.034;3.730;2022-08-01T04:25:09;4.05;;;2.10;;
36715;SDS011;22699;51.034;3.730;2022-08-01T04:27:41;2.72;;;2.15;;
36715;SDS011;22699;51.034;3.730;2022-08-01T04:32:37;3.20;;;2.60;;
36715;SDS011;22699;51.034;3.730;2022-08-01T04:35:05;4.72;;;2.28;;
36715;SDS011;22699;51.034;3.730;2022-08-01T04:37:34;3.35;;;2.55;;
36715;SDS011;22699;51.034;3.730;2022-08-01T04:40:03;3.92;;;2.60;;
36715;SDS011;22699;51.034;3.730;2022-08-01T04:42:31;3.50;;;2.30;;
36715;SDS011;22699;51.034;3.730;2022-08-01T04:44:58;2.40;;;1.70;;
36715;SDS011;22699;51.034;3.730;2022-08-01T04:47:25;2.83;;;2.10;;
36715;SDS011;22699;51.034;3.730;2022-08-01T04:49:51;2.97;;;1.95;;
36715;SDS011;22699;51.034;3.730;2022-08-01T04:52:16;5.40;;;2.08;;
36715;SDS011;22699;51.034;3.730;2022-08-01T04:54:45;2.95;;;2.20;;
36715;SDS011;22699;51.034;3.730;2022-08-01T04:57:11;2.53;;;1.90;;
36715;SDS011;22699;51.034;3.730;2022-08-01T04:59:38;3.85;;;2.45;;
36715;SDS011;22699;51.034;3.730;2022-08-01T05:04:43;3.95;;;2.00;;
36715;SDS011;22699;51.034;3.730;2022-08-01T05:07:09;3.53;;;2.35;;
36715;SDS011;22699;51.034;3.730;2022-08-01T05:09:35;3.92;;;2.38;;
36715;SDS011;22699;51.034;3.730;2022-08-01T05:12:02;2.80;;;2.25;;
36715;SDS011;22699;51.034;3.730;2022-08-01T05:14:31;5.03;;;2.47;;
36715;SDS011;22699;51.034;3.730;2022-08-01T05:17:01;3.70;;;2.00;;
36715;SDS011;22699;51.034;3.730;2022-08-01T05:19:31;6.45;;;2.40;;
36715;SDS011;22699;51.034;3.730;2022-08-01T05:22:08;4.28;;;2.13;;
36715;SDS011;22699;51.034;3.730;2022-08-01T05:24:36;4.43;;;2.20;;
36715;SDS011;22699;51.034;3.730;2022-08-01T05:27:03;4.97;;;2.20;;
36715;SDS011;22699;51.034;3.730;2022-08-01T05:29:29;4.65;;;2.75;;
36715;SDS011;22699;51.034;3.730;2022-08-01T05:31:54;3.28;;;2.55;;
36715;SDS011;22699;51.034;3.730;2022-08-01T05:34:21;3.17;;;2.17;;
36715;SDS011;22699;51.034;3.730;2022-08-01T05:36:47;5.82;;;2.60;;
36715;SDS011;22699;51.034;3.730;2022-08-01T05:39:13;2.92;;;1.95;;
36715;SDS011;22699;51.034;3.730;2022-08-01T05:41:39;3.10;;;2.15;;
36715;SDS011;22699;51.034;3.730;2022-08-01T05:44:06;3.13;;;2.13;;
36715;SDS011;22699;51.034;3.730;2022-08-01T05:46:32;4.60;;;2.13;;
36715;SDS011;22699;51.034;3.730;2022-08-01T05:48:59;2.70;;;1.50;;
36715;SDS011;22699;51.034;3.730;2022-08-01T05:51:26;3.60;;;1.90;;
36715;SDS011;22699;51.034;3.730;2022-08-01T05:53:52;4.57;;;2.17;;
36715;SDS011;22699;51.034;3.730;2022-08-01T05:56:19;3.92;;;1.88;;
36715;SDS011;22699;51.034;3.730;2022-08-01T05:58:45;2.15;;;1.45;;
36715;SDS011;22699;51.034;3.730;2022-08-01T06:01:11;4.43;;;1.80;;
36715;SDS011;22699;51.034;3.730;2022-08-01T06:03:37;4.25;;;2.30;;
36715;SDS011;22699;51.034;3.730;2022-08-01T06:06:03;3.65;;;1.77;;
36715;SDS011;22699;51.034;3.730;2022-08-01T06:08:29;2.20;;;1.85;;
36715;SDS011;22699;51.034;3.730;2022-08-01T06:10:55;2.08;;;1.45;;
36715;SDS011;22699;51.034;3.730;2022-08-01T06:13:20;4.63;;;1.80;;
36715;SDS011;22699;51.034;3.730;2022-08-01T06:15:46;3.15;;;1.60;;
36715;SDS011;22699;51.034;3.730;2022-08-01T06:18:12;5.05;;;1.77;;
36715;SDS011;22699;51.034;3.730;2022-08-01T06:20:38;2.88;;;1.45;;
36715;SDS011;22699;51.034;3.730;2022-08-01T06:23:04;1.88;;;1.20;;
36715;SDS011;22699;51.034;3.730;2022-08-01T06:25:31;2.55;;;1.40;;
36715;SDS011;22699;51.034;3.730;2022-08-01T06:27:58;2.42;;;1.45;;
36715;SDS011;22699;51.034;3.730;2022-08-01T06:30:24;3.15;;;1.30;;
36715;SDS011;22699;51.034;3.730;2022-08-01T06:32:49;4.55;;;1.50;;
36715;SDS011;22699;51.034;3.730;2022-08-01T06:35:15;4.53;;;1.70;;
36715;SDS011;22699;51.034;3.730;2022-08-01T06:37:42;2.95;;;1.40;;
36715;SDS011;22699;51.034;3.730;2022-08-01T06:40:10;3.15;;;1.52;;
36715;SDS011;22699;51.034;3.730;2022-08-01T06:42:37;3.25;;;1.20;;
36715;SDS011;22699;51.034;3.730;2022-08-01T06:47:33;1.85;;;1.15;;
36715;SDS011;22699;51.034;3.730;2022-08-01T06:49:59;1.88;;;1.00;;
36715;SDS011;22699;51.034;3.730;2022-08-01T06:52:24;2.03;;;1.00;;
36715;SDS011;22699;51.034;3.730;2022-08-01T06:54:50;1.85;;;1.00;;
36715;SDS011;22699;51.034;3.730;2022-08-01T06:57:16;2.45;;;0.93;;
36715;SDS011;22699;51.034;3.730;2022-08-01T06:59:42;3.90;;;1.35;;
36715;SDS011;22699;51.034;3.730;2022-08-01T07:02:08;3.85;;;1.55;;
36715;SDS011;22699;51.034;3.730;2022-08-01T07:04:34;2.83;;;1.38;;
36715;SDS011;22699;51.034;3.730;2022-08-01T07:07:00;3.13;;;1.25;;
36715;SDS011;22699;51.034;3.730;2022-08-01T07:09:27;2.90;;;1.10;;
36715;SDS011;22699;51.034;3.730;2022-08-01T07:11:54;5.03;;;1.25;;
36715;SDS011;22699;51.034;3.730;2022-08-01T07:14:21;3.50;;;1.45;;
36715;SDS011;22699;51.034;3.730;2022-08-01T07:16:47;2.22;;;1.17;;
36715;SDS011;22699;51.034;3.730;2022-08-01T07:19:13;2.00;;;1.10;;
36715;SDS011;22699;51.034;3.730;2022-08-01T07:21:38;3.42;;;1.08;;
36715;SDS011;22699;51.034;3.730;2022-08-01T07:24:05;1.73;;;1.20;;
36715;SDS011;22699;51.034;3.730;2022-08-01T07:26:31;3.08;;;1.17;;
36715;SDS011;22699;51.034;3.730;2022-08-01T07:28:57;1.45;;;0.93;;
36715;SDS011;22699;51.034;3.730;2022-08-01T07:31:22;2.65;;;1.40;;
36715;SDS011;22699;51.034;3.730;2022-08-01T07:33:48;1.70;;;1.45;;
36715;SDS011;22699;51.034;3.730;2022-08-01T07:36:15;3.08;;;1.50;;
36715;SDS011;22699;51.034;3.730;2022-08-01T07:38:41;1.13;;;0.75;;
36715;SDS011;22699;51.034;3.730;2022-08-01T07:41:07;1.88;;;0.77;;
36715;SDS011;22699;51.034;3.730;2022-08-01T07:43:32;2.65;;;0.90;;
36715;SDS011;22699;51.034;3.730;2022-08-01T07:45:58;2.00;;;0.98;;
36715;SDS011;22699;51.034;3.730;2022-08-01T07:48:23;2.85;;;1.05;;
36715;SDS011;22699;51.034;3.730;2022-08-01T07:50:51;4.03;;;0.82;;
36715;SDS011;22699;51.034;3.730;2022-08-01T07:53:17;1.95;;;0.73;;
36715;SDS011;22699;51.034;3.730;2022-08-01T07:55:42;2.30;;;0.80;;
36715;SDS011;22699;51.034;3.730;2022-08-01T07:58:08;2.58;;;0.52;;
36715;SDS011;22699;51.034;3.730;2022-08-01T08:00:34;2.65;;;0.60;;
36715;SDS011;22699;51.034;3.730;2022-08-01T08:03:00;0.80;;;0.60;;
36715;SDS011;22699;51.034;3.730;2022-08-01T08:05:26;2.67;;;0.68;;
36715;SDS011;22699;51.034;3.730;2022-08-01T08:07:52;0.70;;;0.60;;
36715;SDS011;22699;51.034;3.730;2022-08-01T08:10:19;1.05;;;0.50;;
36715;SDS011;22699;51.034;3.730;2022-08-01T08:12:45;2.00;;;0.60;;
36715;SDS011;22699;51.034;3.730;2022-08-01T08:15:12;1.13;;;0.68;;
36715;SDS011;22699;51.034;3.730;2022-08-01T08:17:39;2.72;;;0.73;;
36715;SDS011;22699;51.034;3.730;2022-08-01T08:20:06;1.00;;;0.77;;
36715;SDS011;22699;51.034;3.730;2022-08-01T08:22:32;5.07;;;0.93;;
36715;SDS011;22699;51.034;3.730;2022-08-01T08:24:59;2.95;;;0.80;;
36715;SDS011;22699;51.034;3.730;2022-08-01T08:27:24;2.15;;;1.02;;
36715;SDS011;22699;51.034;3.730;2022-08-01T08:29:51;2.35;;;0.80;;
36715;SDS011;22699;51.034;3.730;2022-08-01T08:32:17;1.05;;;0.60;;
36715;SDS011;22699;51.034;3.730;2022-08-01T08:34:42;2.63;;;0.98;;
36715;SDS011;22699;51.034;3.730;2022-08-01T08:37:08;2.38;;;1.30;;
36715;SDS011;22699;51.034;3.730;2022-08-01T08:39:34;1.92;;;1.05;;
36715;SDS011;22699;51.034;3.730;2022-08-01T08:41:59;3.67;;;1.20;;
36715;SDS011;22699;51.034;3.730;2022-08-01T08:44:31;3.20;;;1.20;;
36715;SDS011;22699;51.034;3.730;2022-08-01T08:46:57;3.17;;;1.20;;
36715;SDS011;22699;51.034;3.730;2022-08-01T08:49:27;2.67;;;1.23;;
36715;SDS011;22699;51.034;3.730;2022-08-01T08:51:53;1.50;;;1.10;;
36715;SDS011;22699;51.034;3.730;2022-08-01T08:54:23;0.82;;;0.60;;
36715;SDS011;22699;51.034;3.730;2022-08-01T08:56:53;0.82;;;0.50;;
36715;SDS011;22699;51.034;3.730;2022-08-01T08:59:19;0.95;;;0.60;;
36715;SDS011;22699;51.034;3.730;2022-08-01T09:01:46;1.80;;;0.50;;
36715;SDS011;22699;51.034;3.730;2022-08-01T09:04:13;0.80;;;0.50;;
36715;SDS011;22699;51.034;3.730;2022-08-01T09:06:39;1.33;;;0.60;;
36715;SDS011;22699;51.034;3.730;2022-08-01T09:09:06;2.10;;;0.57;;
36715;SDS011;22699;51.034;3.730;2022-08-01T09:11:34;1.33;;;0.80;;
36715;SDS011;22699;51.034;3.730;2022-08-01T09:16:30;4.35;;;0.60;;
36715;SDS011;22699;51.034;3.730;2022-08-01T09:19:07;0.60;;;0.40;;
36715;SDS011;22699;51.034;3.730;2022-08-01T09:21:33;1.75;;;0.63;;
36715;SDS011;22699;51.034;3.730;2022-08-01T09:23:58;1.80;;;0.57;;
36715;SDS011;22699;51.034;3.730;2022-08-01T09:26:32;5.07;;;0.80;;
36715;SDS011;22699;51.034;3.730;2022-08-01T09:29:00;1.92;;;1.30;;
36715;SDS011;22699;51.034;3.730;2022-08-01T09:31:28;2.42;;;0.85;;
36715;SDS011;22699;51.034;3.730;2022-08-01T09:34:00;1.33;;;0.47;;
36715;SDS011;22699;51.034;3.730;2022-08-01T09:39:19;1.75;;;0.70;;
36715;SDS011;22699;51.034;3.730;2022-08-01T09:41:46;3.08;;;0.70;;
36715;SDS011;22699;51.034;3.730;2022-08-01T09:44:13;2.30;;;0.60;;
36715;SDS011;22699;51.034;3.730;2022-08-01T09:46:53;1.50;;;0.73;;
36715;SDS011;22699;51.034;3.730;2022-08-01T09:49:29;3.30;;;0.68;;
36715;SDS011;22699;51.034;3.730;2022-08-01T09:52:09;2.13;;;0.70;;
36715;SDS011;22699;51.034;3.730;2022-08-01T09:54:36;1.52;;;0.70;;
36715;SDS011;22699;51.034;3.730;2022-08-01T09:57:12;1.65;;;0.70;;
36715;SDS011;22699;51.034;3.730;2022-08-01T09:59:41;4.40;;;1.02;;
36715;SDS011;22699;51.034;3.730;2022-08-01T10:02:09;2.93;;;0.90;;
36715;SDS011;22699;51.034;3.730;2022-08-01T10:04:48;2.97;;;0.70;;
36715;SDS011;22699;51.034;3.730;2022-08-01T10:07:15;1.55;;;0.40;;
36715;SDS011;22699;51.034;3.730;2022-08-01T10:09:41;1.75;;;0.80;;
36715;SDS011;22699;51.034;3.730;2022-08-01T10:12:09;1.33;;;0.70;;
36715;SDS011;22699;51.034;3.730;2022-08-01T10:14:37;2.03;;;0.63;;
36715;SDS011;22699;51.034;3.730;2022-08-01T10:17:06;2.10;;;0.95;;
36715;SDS011;22699;51.034;3.730;2022-08-01T10:19:36;2.08;;;0.85;;
36715;SDS011;22699;51.034;3.730;2022-08-01T10:22:12;3.33;;;1.13;;
36715;SDS011;22699;51.034;3.730;2022-08-01T10:24:43;2.03;;;1.02;;
36715;SDS011;22699;51.034;3.730;2022-08-01T10:27:11;2.53;;;1.27;;
36715;SDS011;22699;51.034;3.730;2022-08-01T10:29:46;2.77;;;0.80;;
36715;SDS011;22699;51.034;3.730;2022-08-01T10:32:15;3.10;;;0.90;;
36715;SDS011;22699;51.034;3.730;2022-08-01T10:34:42;4.03;;;0.80;;
36715;SDS011;22699;51.034;3.730;2022-08-01T10:37:08;5.28;;;0.85;;
36715;SDS011;22699;51.034;3.730;2022-08-01T10:39:35;2.65;;;0.90;;
36715;SDS011;22699;51.034;3.730;2022-08-01T10:42:01;0.80;;;0.60;;
36715;SDS011;22699;51.034;3.730;2022-08-01T10:44:28;1.48;;;0.77;;
36715;SDS011;22699;51.034;3.730;2022-08-01T10:47:03;1.58;;;1.00;;
36715;SDS011;22699;51.034;3.730;2022-08-01T10:49:34;1.42;;;0.70;;
36715;SDS011;22699;51.034;3.730;2022-08-01T10:52:06;1.20;;;0.57;;
36715;SDS011;22699;51.034;3.730;2022-08-01T10:54:37;5.63;;;1.17;;
36715;SDS011;22699;51.034;3.730;2022-08-01T10:57:04;3.05;;;0.85;;
36715;SDS011;22699;51.034;3.730;2022-08-01T10:59:32;1.85;;;0.93;;
36715;SDS011;22699;51.034;3.730;2022-08-01T11:04:35;1.92;;;0.98;;
36715;SDS011;22699;51.034;3.730;2022-08-01T11:07:06;2.13;;;0.93;;
36715;SDS011;22699;51.034;3.730;2022-08-01T11:12:15;4.60;;;1.73;;
36715;SDS011;22699;51.034;3.730;2022-08-01T11:17:59;3.42;;;0.90;;
36715;SDS011;22699;51.034;3.730;2022-08-01T11:20:32;3.38;;;1.27;;
36715;SDS011;22699;51.034;3.730;2022-08-01T11:25:25;4.18;;;1.10;;
36715;SDS011;22699;51.034;3.730;2022-08-01T11:30:45;2.78;;;0.90;;
36715;SDS011;22699;51.034;3.730;2022-08-01T11:33:13;2.00;;;0.70;;
36715;SDS011;22699;51.034;3.730;2022-08-01T11:41:36;2.97;;;1.00;;
36715;SDS011;22699;51.034;3.730;2022-08-01T11:44:02;2.53;;;1.05;;
36715;SDS011;22699;51.034;3.730;2022-08-01T11:52:08;3.88;;;1.00;;
36715;SDS011;22699;51.034;3.730;2022-08-01T11:54:56;2.10;;;0.80;;
36715;SDS011;22699;51.034;3.730;2022-08-01T11:57:23;1.60;;;0.80;;
36715;SDS011;22699;51.034;3.730;2022-08-01T11:59:59;1.40;;;0.75;;
36715;SDS011;22699;51.034;3.730;2022-08-01T12:02:36;2.30;;;0.85;;
36715;SDS011;22699;51.034;3.730;2022-08-01T12:07:37;3.22;;;1.30;;
36715;SDS011;22699;51.034;3.730;2022-08-01T12:10:09;2.75;;;0.90;;
36715;SDS011;22699;51.034;3.730;2022-08-01T12:12:35;1.63;;;1.13;;
36715;SDS011;22699;51.034;3.730;2022-08-01T12:15:03;2.55;;;1.02;;
36715;SDS011;22699;51.034;3.730;2022-08-01T12:17:35;2.22;;;0.93;;
36715;SDS011;22699;51.034;3.730;2022-08-01T12:20:03;3.50;;;1.00;;
36715;SDS011;22699;51.034;3.730;2022-08-01T12:22:34;2.42;;;1.10;;
36715;SDS011;22699;51.034;3.730;2022-08-01T12:25:09;3.05;;;0.90;;
36715;SDS011;22699;51.034;3.730;2022-08-01T12:27:43;5.00;;;1.52;;
36715;SDS011;22699;51.034;3.730;2022-08-01T12:30:11;3.47;;;1.10;;
36715;SDS011;22699;51.034;3.730;2022-08-01T12:32:42;3.15;;;1.10;;
36715;SDS011;22699;51.034;3.730;2022-08-01T12:35:10;4.38;;;0.90;;
36715;SDS011;22699;51.034;3.730;2022-08-01T12:37:39;0.93;;;0.60;;
36715;SDS011;22699;51.034;3.730;2022-08-01T12:40:11;2.40;;;1.20;;
36715;SDS011;22699;51.034;3.730;2022-08-01T12:42:39;2.55;;;0.82;;
36715;SDS011;22699;51.034;3.730;2022-08-01T12:45:07;1.27;;;0.73;;
36715;SDS011;22699;51.034;3.730;2022-08-01T12:47:35;2.22;;;0.75;;
36715;SDS011;22699;51.034;3.730;2022-08-01T12:50:03;2.63;;;1.20;;
36715;SDS011;22699;51.034;3.730;2022-08-01T12:52:40;4.82;;;1.08;;
36715;SDS011;22699;51.034;3.730;2022-08-01T12:55:10;3.75;;;1.00;;
36715;SDS011;22699;51.034;3.730;2022-08-01T12:57:41;2.00;;;0.90;;
36715;SDS011;22699;51.034;3.730;2022-08-01T13:02:49;3.45;;;0.98;;
36715;SDS011;22699;51.034;3.730;2022-08-01T13:05:26;1.70;;;0.82;;
36715;SDS011;22699;51.034;3.730;2022-08-01T13:07:52;1.33;;;0.80;;
36715;SDS011;22699;51.034;3.730;2022-08-01T13:10:28;2.35;;;0.95;;
36715;SDS011;22699;51.034;3.730;2022-08-01T13:12:56;2.22;;;0.70;;
36715;SDS011;22699;51.034;3.730;2022-08-01T13:15:27;1.08;;;0.60;;
36715;SDS011;22699;51.034;3.730;2022-08-01T13:17:56;1.60;;;0.80;;
36715;SDS011;22699;51.034;3.730;2022-08-01T13:20:24;1.88;;;0.98;;
36715;SDS011;22699;51.034;3.730;2022-08-01T13:22:51;4.60;;;1.50;;
36715;SDS011;22699;51.034;3.730;2022-08-01T13:25:17;2.15;;;1.05;;
36715;SDS011;22699;51.034;3.730;2022-08-01T13:27:43;3.25;;;0.70;;
36715;SDS011;22699;51.034;3.730;2022-08-01T13:32:42;3.78;;;1.30;;
36715;SDS011;22699;51.034;3.730;2022-08-01T13:35:12;2.97;;;1.20;;
36715;SDS011;22699;51.034;3.730;2022-08-01T13:37:41;5.40;;;1.33;;
36715;SDS011;22699;51.034;3.730;2022-08-01T13:45:05;2.38;;;1.10;;
36715;SDS011;22699;51.034;3.730;2022-08-01T13:47:37;2.50;;;1.05;;
36715;SDS011;22699;51.034;3.730;2022-08-01T13:50:02;2.83;;;0.90;;
36715;SDS011;22699;51.034;3.730;2022-08-01T13:52:29;3.55;;;0.70;;
36715;SDS011;22699;51.034;3.730;2022-08-01T13:54:55;3.42;;;0.80;;
36715;SDS011;22699;51.034;3.730;2022-08-01T13:57:21;2.65;;;0.85;;
36715;SDS011;22699;51.034;3.730;2022-08-01T13:59:47;2.85;;;0.60;;
36715;SDS011;22699;51.034;3.730;2022-08-01T14:02:12;3.33;;;0.70;;
36715;SDS011;22699;51.034;3.730;2022-08-01T14:04:38;1.83;;;0.63;;
36715;SDS011;22699;51.034;3.730;2022-08-01T14:07:03;1.88;;;0.63;;
36715;SDS011;22699;51.034;3.730;2022-08-01T14:09:29;2.40;;;0.45;;
36715;SDS011;22699;51.034;3.730;2022-08-01T14:11:58;1.33;;;0.60;;
36715;SDS011;22699;51.034;3.730;2022-08-01T14:14:24;1.23;;;0.50;;
36715;SDS011;22699;51.034;3.730;2022-08-01T14:16:49;2.00;;;0.60;;
36715;SDS011;22699;51.034;3.730;2022-08-01T14:19:15;1.90;;;0.70;;
36715;SDS011;22699;51.034;3.730;2022-08-01T14:21:42;3.22;;;0.85;;
36715;SDS011;22699;51.034;3.730;2022-08-01T14:24:09;5.25;;;0.60;;
36715;SDS011;22699;51.034;3.730;2022-08-01T14:26:35;2.35;;;0.65;;
36715;SDS011;22699;51.034;3.730;2022-08-01T14:29:01;9.68;;;0.80;;
36715;SDS011;22699;51.034;3.730;2022-08-01T14:31:26;2.40;;;0.63;;
36715;SDS011;22699;51.034;3.730;2022-08-01T14:33:55;2.15;;;1.00;;
36715;SDS011;22699;51.034;3.730;2022-08-01T14:36:20;2.08;;;0.70;;
36715;SDS011;22699;51.034;3.730;2022-08-01T14:38:46;1.88;;;0.60;;
36715;SDS011;22699;51.034;3.730;2022-08-01T14:41:13;2.17;;;0.80;;
36715;SDS011;22699;51.034;3.730;2022-08-01T14:43:40;1.52;;;0.63;;
36715;SDS011;22699;51.034;3.730;2022-08-01T14:46:05;2.05;;;0.63;;
36715;SDS011;22699;51.034;3.730;2022-08-01T14:48:32;2.25;;;0.70;;
36715;SDS011;22699;51.034;3.730;2022-08-01T14:50:58;1.55;;;0.60;;
36715;SDS011;22699;51.034;3.730;2022-08-01T14:53:27;3.20;;;0.75;;
36715;SDS011;22699;51.034;3.730;2022-08-01T14:55:53;2.25;;;0.70;;
36715;SDS011;22699;51.034;3.730;2022-08-01T14:58:19;5.53;;;0.63;;
36715;SDS011;22699;51.034;3.730;2022-08-01T15:00:44;1.08;;;0.50;;
36715;SDS011;22699;51.034;3.730;2022-08-01T15:03:10;1.42;;;0.40;;
36715;SDS011;22699;51.034;3.730;2022-08-01T15:05:36;1.60;;;0.70;;
36715;SDS011;22699;51.034;3.730;2022-08-01T15:08:02;2.78;;;0.70;;
36715;SDS011;22699;51.034;3.730;2022-08-01T15:10:28;4.97;;;0.73;;
36715;SDS011;22699;51.034;3.730;2022-08-01T15:12:53;3.15;;;0.70;;
36715;SDS011;22699;51.034;3.730;2022-08-01T15:15:21;1.50;;;0.70;;
36715;SDS011;22699;51.034;3.730;2022-08-01T15:17:47;1.27;;;0.60;;
36715;SDS011;22699;51.034;3.730;2022-08-01T15:20:13;1.80;;;0.82;;
36715;SDS011;22699;51.034;3.730;2022-08-01T15:22:38;2.10;;;0.60;;
36715;SDS011;22699;51.034;3.730;2022-08-01T15:25:04;1.15;;;0.45;;
36715;SDS011;22699;51.034;3.730;2022-08-01T15:27:30;2.65;;;0.70;;
36715;SDS011;22699;51.034;3.730;2022-08-01T15:29:56;1.85;;;0.60;;
36715;SDS011;22699;51.034;3.730;2022-08-01T15:32:22;1.58;;;0.50;;
36715;SDS011;22699;51.034;3.730;2022-08-01T15:34:48;2.47;;;0.68;;
36715;SDS011;22699;51.034;3.730;2022-08-01T15:37:14;2.00;;;0.60;;
36715;SDS011;22699;51.034;3.730;2022-08-01T15:39:40;3.30;;;0.98;;
36715;SDS011;22699;51.034;3.730;2022-08-01T15:42:07;1.75;;;0.63;;
36715;SDS011;22699;51.034;3.730;2022-08-01T15:44:35;1.55;;;0.70;;
36715;SDS011;22699;51.034;3.730;2022-08-01T15:47:01;3.15;;;1.10;;
36715;SDS011;22699;51.034;3.730;2022-08-01T15:49:28;1.48;;;0.40;;